Time;durP1;ratioP1;P1;durP2;ratioP2;P2;SDS_P1;SDS_P2;PMS_P1;PMS_P2;Temp;Humidity;BMP_temperature;BMP_pressure;BME280_temperature;BME280_humidity;BME280_pressure;Samples;Min_cycle;Max_cycle;Signal;HPM_P1;HPM_P2
2022/11/20 00:01:47;;;;;;;2.13;1.20;;;18.00;83.10;;;;;;5035212;28;20486;-72
2022/11/20 00:04:12;;;;;;;2.45;1.13;;;18.00;83.00;;;;;;5051753;28;20025;-72
2022/11/20 00:06:38;;;;;;;2.53;1.20;;;18.00;83.10;;;;;;5052140;28;20025;-72
2022/11/20 00:09:05;;;;;;;1.83;1.00;;;18.00;83.10;;;;;;5051783;28;20040;-72
2022/11/20 00:11:31;;;;;;;2.72;1.10;;;17.90;83.10;;;;;;5051763;28;20075;-72
2022/11/20 00:13:59;;;;;;;1.92;1.08;;;17.90;83.10;;;;;;5051380;28;20027;-72
2022/11/20 00:16:26;;;;;;;7.45;1.40;;;18.00;83.20;;;;;;5051659;28;20555;-72
2022/11/20 00:18:52;;;;;;;2.88;1.25;;;18.00;83.20;;;;;;5034521;28;20021;-72
2022/11/20 00:21:19;;;;;;;1.02;0.93;;;18.00;83.20;;;;;;5032987;28;20024;-72
2022/11/20 00:23:45;;;;;;;1.63;1.15;;;18.00;83.20;;;;;;5031587;28;20022;-72
2022/11/20 00:26:13;;;;;;;1.83;1.00;;;18.00;83.20;;;;;;5032239;28;20075;-72
2022/11/20 00:28:39;;;;;;;1.17;1.08;;;18.00;83.20;;;;;;5051930;28;20032;-72
2022/11/20 00:31:09;;;;;;;3.30;1.10;;;18.00;83.20;;;;;;5051380;28;20443;-72
2022/11/20 00:33:34;;;;;;;6.15;1.23;;;18.00;83.10;;;;;;5035607;28;20024;-72
2022/11/20 00:36:07;;;;;;;2.13;1.30;;;18.00;83.30;;;;;;5034831;28;20103;-72
2022/11/20 00:38:32;;;;;;;4.53;1.17;;;18.00;83.30;;;;;;5051258;28;20033;-72
2022/11/20 00:40:59;;;;;;;2.30;1.13;;;18.00;83.30;;;;;;5034469;28;20021;-72
2022/11/20 00:43:25;;;;;;;1.73;1.00;;;18.00;83.30;;;;;;5051202;28;20021;-72
2022/11/20 00:45:55;;;;;;;2.90;1.20;;;18.00;83.40;;;;;;5034793;28;20028;-72
2022/11/20 00:48:21;;;;;;;1.63;1.00;;;18.00;83.50;;;;;;5051265;28;20537;-72
2022/11/20 00:50:46;;;;;;;1.10;1.00;;;18.00;83.40;;;;;;5051239;28;20032;-72
2022/11/20 00:53:12;;;;;;;34.72;1.75;;;18.00;83.40;;;;;;5052440;28;20057;-72
2022/11/20 00:55:38;;;;;;;2.03;0.80;;;18.00;84.40;;;;;;5052338;28;20130;-72
2022/11/20 00:58:03;;;;;;;1.15;1.00;;;18.00;83.50;;;;;;5050691;28;21425;-72
2022/11/20 01:00:29;;;;;;;2.88;1.15;;;18.00;83.40;;;;;;5051175;28;20025;-72
2022/11/20 01:02:56;;;;;;;2.58;1.02;;;18.00;83.40;;;;;;5051876;28;20045;-72
2022/11/20 01:05:21;;;;;;;4.13;1.00;;;18.00;83.40;;;;;;5052294;28;20025;-72
2022/11/20 01:07:47;;;;;;;3.85;1.05;;;18.00;83.40;;;;;;5052241;28;20038;-72
2022/11/20 01:10:13;;;;;;;4.38;0.93;;;18.00;83.40;;;;;;5050994;28;20438;-72
2022/11/20 01:12:38;;;;;;;3.97;1.42;;;18.00;83.30;;;;;;5050597;28;20079;-72
2022/11/20 01:15:04;;;;;;;2.88;1.05;;;18.00;83.30;;;;;;5052095;28;20028;-72
2022/11/20 01:17:31;;;;;;;2.95;1.15;;;18.00;83.40;;;;;;5052302;28;20502;-72
2022/11/20 01:19:57;;;;;;;3.35;0.90;;;18.00;83.30;;;;;;5041012;28;20025;-72
2022/11/20 01:22:22;;;;;;;1.73;1.00;;;18.00;83.20;;;;;;5030944;28;20108;-72
2022/11/20 01:24:48;;;;;;;1.77;1.00;;;18.00;83.30;;;;;;5030940;28;20112;-72
2022/11/20 01:27:14;;;;;;;2.00;1.25;;;18.00;83.30;;;;;;5040140;28;20060;-72
2022/11/20 01:29:39;;;;;;;2.33;0.82;;;18.00;83.20;;;;;;5052111;28;20113;-72
2022/11/20 01:32:05;;;;;;;2.58;0.98;;;18.00;83.30;;;;;;5051835;28;20061;-72
2022/11/20 01:34:30;;;;;;;1.13;0.75;;;18.00;83.20;;;;;;5052122;28;20043;-72
2022/11/20 01:36:56;;;;;;;4.75;1.08;;;18.00;83.20;;;;;;5034124;28;20454;-72
2022/11/20 01:39:24;;;;;;;2.58;1.02;;;18.00;83.30;;;;;;5051737;28;20024;-72
2022/11/20 01:45:25;;;;;;;4.47;1.15;;;18.00;83.30;;;;;;5055341;28;20024;-72
2022/11/20 01:47:51;;;;;;;2.08;0.98;;;18.00;83.20;;;;;;5054781;28;20037;-72
2022/11/20 01:50:28;;;;;;;2.10;0.98;;;18.00;83.30;;;;;;5054315;28;20044;-72
2022/11/20 01:53:21;;;;;;;15.30;1.00;;;18.00;83.30;;;;;;5054466;28;20025;-72
2022/11/20 01:55:49;;;;;;;3.85;1.10;;;18.00;83.40;;;;;;5055158;28;20473;-72
2022/11/20 01:58:15;;;;;;;2.17;1.08;;;18.00;83.50;;;;;;5037735;28;20048;-72
2022/11/20 02:00:41;;;;;;;3.65;1.15;;;18.00;83.50;;;;;;5054261;28;20025;-72
2022/11/20 02:03:12;;;;;;;3.70;0.93;;;18.00;83.50;;;;;;5054115;28;20395;-72
2022/11/20 02:05:56;;;;;;;4.97;1.15;;;17.90;83.40;;;;;;5038051;28;20021;-72
2022/11/20 02:08:21;;;;;;;4.63;0.90;;;18.00;83.50;;;;;;5054095;28;20032;-72
2022/11/20 02:10:47;;;;;;;1.45;0.85;;;18.00;83.60;;;;;;5037366;28;20419;-72
2022/11/20 02:15:57;;;;;;;5.15;1.42;;;18.00;83.50;;;;;;5054128;28;20052;-72
2022/11/20 02:18:22;;;;;;;3.70;1.10;;;17.90;83.40;;;;;;5055092;28;20487;-72
2022/11/20 02:20:50;;;;;;;3.05;0.93;;;18.00;83.50;;;;;;5037294;28;20021;-72
2022/11/20 02:23:33;;;;;;;0.95;0.85;;;18.00;83.50;;;;;;5033937;28;20029;-72
2022/11/20 02:25:59;;;;;;;1.00;0.90;;;18.00;83.50;;;;;;5033579;28;20096;-72
2022/11/20 02:28:24;;;;;;;2.67;1.15;;;17.90;83.50;;;;;;5052912;28;20112;-72
2022/11/20 02:30:50;;;;;;;3.35;0.98;;;17.90;83.50;;;;;;5053795;28;20056;-72
2022/11/20 02:33:16;;;;;;;1.67;0.98;;;17.90;83.50;;;;;;5054968;28;20455;-72
2022/11/20 02:35:44;;;;;;;1.23;0.80;;;18.00;83.60;;;;;;5054907;28;20036;-72
2022/11/20 02:38:09;;;;;;;1.98;0.90;;;17.90;83.60;;;;;;5036901;28;20033;-72
2022/11/20 02:40:35;;;;;;;1.30;0.85;;;17.90;83.70;;;;;;5036774;28;20571;-72
2022/11/20 02:43:01;;;;;;;6.38;0.90;;;18.00;83.60;;;;;;5053309;28;20124;-72
2022/11/20 02:45:26;;;;;;;2.95;1.10;;;17.90;83.60;;;;;;5054971;28;20027;-72
2022/11/20 02:47:52;;;;;;;1.25;0.80;;;18.00;83.70;;;;;;5053529;28;20079;-72
2022/11/20 02:50:17;;;;;;;3.47;0.93;;;17.90;83.70;;;;;;5053306;28;20108;-72
2022/11/20 02:52:43;;;;;;;2.47;1.10;;;17.90;83.70;;;;;;5053770;28;20028;-72
2022/11/20 02:55:09;;;;;;;2.47;0.90;;;17.90;83.70;;;;;;5036456;28;20114;-72
2022/11/20 02:57:34;;;;;;;2.85;1.10;;;17.90;83.70;;;;;;5053093;28;20041;-72
2022/11/20 03:00:00;;;;;;;1.98;0.93;;;17.90;83.70;;;;;;5053385;28;20025;-72
2022/11/20 03:02:29;;;;;;;0.68;0.60;;;17.90;83.70;;;;;;5053102;28;20029;-72
2022/11/20 03:04:55;;;;;;;5.72;1.10;;;18.00;83.80;;;;;;5036737;28;20017;-72
2022/11/20 03:07:20;;;;;;;2.22;1.00;;;17.90;83.70;;;;;;5053141;28;20021;-72
2022/11/20 03:09:46;;;;;;;1.75;1.10;;;17.90;83.80;;;;;;5053979;28;20399;-72
2022/11/20 03:12:11;;;;;;;1.90;0.90;;;17.90;83.80;;;;;;5053984;28;20029;-72
2022/11/20 03:14:37;;;;;;;1.60;0.70;;;18.00;83.90;;;;;;5054240;28;20021;-72
2022/11/20 03:17:03;;;;;;;2.97;0.90;;;17.90;83.80;;;;;;5053881;28;20095;-72
2022/11/20 03:19:28;;;;;;;1.65;0.70;;;17.90;83.90;;;;;;5047008;28;20052;-72
2022/11/20 03:21:54;;;;;;;2.38;0.90;;;17.90;83.90;;;;;;5034764;28;20165;-72
2022/11/20 03:24:19;;;;;;;2.63;0.80;;;17.90;84.00;;;;;;5043143;28;20033;-73
2022/11/20 03:26:45;;;;;;;1.58;0.80;;;17.90;84.00;;;;;;5038796;28;20029;-72
2022/11/20 03:29:11;;;;;;;2.42;0.80;;;17.90;83.70;;;;;;5054225;28;20021;-72
2022/11/20 03:31:40;;;;;;;5.28;0.80;;;17.90;83.70;;;;;;5053284;28;20029;-72
2022/11/20 03:34:05;;;;;;;1.83;0.60;;;18.00;83.80;;;;;;5053338;28;20079;-72
2022/11/20 03:36:31;;;;;;;2.20;0.90;;;18.00;83.80;;;;;;5053006;28;20036;-72
2022/11/20 03:38:57;;;;;;;2.30;0.70;;;17.90;83.70;;;;;;5052803;28;20029;-72
2022/11/20 03:41:30;;;;;;;3.08;0.82;;;17.90;83.80;;;;;;5036658;28;20029;-72
2022/11/20 03:44:00;;;;;;;1.48;0.82;;;18.00;83.80;;;;;;5053234;28;20021;-72
2022/11/20 03:46:26;;;;;;;0.98;0.60;;;18.00;83.80;;;;;;5052967;28;20029;-72
2022/11/20 03:48:52;;;;;;;3.67;0.70;;;18.00;83.70;;;;;;5052811;28;20024;-72
2022/11/20 03:51:22;;;;;;;4.95;0.90;;;18.00;83.70;;;;;;5052624;28;20463;-72
2022/11/20 03:53:48;;;;;;;2.67;0.80;;;18.00;83.50;;;;;;5053044;28;20801;-72
2022/11/20 03:56:15;;;;;;;4.65;0.90;;;17.90;83.50;;;;;;5052900;28;20021;-71
2022/11/20 03:58:41;;;;;;;10.95;1.10;;;17.90;83.50;;;;;;5036138;28;20059;-71
2022/11/20 04:01:15;;;;;;;9.40;0.90;;;18.00;83.70;;;;;;5035891;28;20487;-72
2022/11/20 04:03:41;;;;;;;2.30;0.80;;;18.00;83.70;;;;;;5051911;28;20482;-72
2022/11/20 04:06:07;;;;;;;5.10;0.80;;;18.00;83.70;;;;;;5053431;28;20593;-72
2022/11/20 04:08:33;;;;;;;6.88;0.77;;;18.00;83.80;;;;;;5053679;28;20025;-72
2022/11/20 04:11:16;;;;;;;15.88;0.93;;;17.90;83.70;;;;;;5053834;28;20036;-72
2022/11/20 04:13:45;;;;;;;4.15;0.90;;;17.90;83.80;;;;;;5053371;28;20501;-72
2022/11/20 04:16:10;;;;;;;4.97;0.90;;;17.90;83.70;;;;;;5052003;28;20171;-72
2022/11/20 04:18:36;;;;;;;5.07;1.00;;;17.90;83.80;;;;;;5053574;28;20535;-72
2022/11/20 04:21:02;;;;;;;1.92;0.70;;;17.90;83.80;;;;;;5033447;28;20030;-72
2022/11/20 04:23:28;;;;;;;3.40;1.05;;;17.90;83.80;;;;;;5032194;28;20024;-72
2022/11/20 04:25:54;;;;;;;3.45;0.90;;;17.90;83.70;;;;;;5032180;28;20021;-72
2022/11/20 04:28:19;;;;;;;9.30;0.88;;;17.90;83.70;;;;;;5051770;28;20086;-72
2022/11/20 04:30:45;;;;;;;8.10;0.90;;;18.00;83.70;;;;;;5052217;28;20083;-72
2022/11/20 04:33:11;;;;;;;1.45;0.70;;;17.90;83.70;;;;;;5053148;28;20032;-72
2022/11/20 04:35:37;;;;;;;4.40;1.08;;;17.90;83.80;;;;;;5051699;28;20096;-72
2022/11/20 04:38:02;;;;;;;3.80;1.05;;;17.90;83.70;;;;;;5052869;28;20025;-72
2022/11/20 04:40:28;;;;;;;2.92;1.13;;;17.90;83.80;;;;;;5051894;28;20029;-72
2022/11/20 04:42:54;;;;;;;4.82;1.20;;;17.90;83.70;;;;;;5053210;28;20025;-72
2022/11/20 04:45:20;;;;;;;3.70;0.85;;;17.90;84.10;;;;;;5051835;28;20021;-72
2022/11/20 04:47:46;;;;;;;2.05;0.88;;;17.90;83.60;;;;;;5051885;28;20017;-72
2022/11/20 04:50:11;;;;;;;11.45;1.30;;;17.90;83.70;;;;;;5051388;28;20422;-72
2022/11/20 04:52:37;;;;;;;4.78;1.10;;;17.90;83.60;;;;;;5053099;28;20047;-72
2022/11/20 04:55:03;;;;;;;5.15;1.20;;;17.90;83.60;;;;;;5052741;28;20039;-72
2022/11/20 04:57:28;;;;;;;5.50;1.13;;;17.90;83.60;;;;;;5034963;28;20143;-72
2022/11/20 04:59:54;;;;;;;5.60;1.10;;;17.90;83.70;;;;;;5052830;28;20033;-72
2022/11/20 05:02:20;;;;;;;4.15;0.73;;;17.90;83.60;;;;;;5052854;28;20064;-72
2022/11/20 05:04:45;;;;;;;6.65;1.25;;;17.90;83.70;;;;;;5051340;28;20103;-72
2022/11/20 05:07:11;;;;;;;4.63;1.00;;;17.90;83.60;;;;;;5051527;28;20021;-72
2022/11/20 05:09:37;;;;;;;6.15;1.15;;;17.90;83.50;;;;;;5051450;28;20022;-72
2022/11/20 05:12:02;;;;;;;5.93;1.33;;;17.90;83.40;;;;;;5051708;28;20021;-72
2022/11/20 05:14:28;;;;;;;4.90;1.23;;;17.90;83.40;;;;;;5052829;28;20387;-72
2022/11/20 05:16:54;;;;;;;4.57;1.10;;;17.90;83.40;;;;;;5057101;28;20029;-72
2022/11/20 05:19:19;;;;;;;3.92;1.27;;;17.90;83.40;;;;;;5052018;28;20412;-72
2022/11/20 05:21:45;;;;;;;6.80;1.35;;;17.90;83.50;;;;;;5035767;28;20464;-72
2022/11/20 05:24:11;;;;;;;8.55;1.38;;;17.90;83.40;;;;;;5036869;28;20022;-72
2022/11/20 05:26:36;;;;;;;6.57;1.15;;;17.90;83.40;;;;;;5040962;28;20029;-72
2022/11/20 05:29:02;;;;;;;5.95;0.90;;;17.90;84.30;;;;;;5056671;28;20033;-72
2022/11/20 05:31:27;;;;;;;7.65;0.90;;;17.90;83.30;;;;;;5055378;28;20028;-72
2022/11/20 05:33:53;;;;;;;9.43;1.92;;;17.90;83.40;;;;;;5055346;28;20032;-72
2022/11/20 05:36:19;;;;;;;9.15;1.10;;;17.90;83.30;;;;;;5038785;28;20040;-72
2022/11/20 05:38:45;;;;;;;6.55;1.52;;;17.90;83.30;;;;;;5056386;28;20029;-72
2022/11/20 05:41:12;;;;;;;7.03;1.90;;;17.90;83.40;;;;;;5055275;28;20036;-72
2022/11/20 05:43:39;;;;;;;9.05;1.40;;;17.90;83.40;;;;;;5056476;28;20009;-72
2022/11/20 05:46:06;;;;;;;8.82;1.45;;;17.90;83.30;;;;;;5055294;28;20147;-72
2022/11/20 05:48:31;;;;;;;13.73;1.92;;;17.90;83.30;;;;;;5056230;28;20178;-72
2022/11/20 05:51:00;;;;;;;14.32;1.20;;;17.90;83.40;;;;;;5056291;28;20467;-72
2022/11/20 05:53:26;;;;;;;10.48;2.13;;;17.90;83.30;;;;;;5055028;28;20021;-72
2022/11/20 05:55:58;;;;;;;9.95;1.30;;;17.90;83.30;;;;;;5038475;28;20040;-72
2022/11/20 05:58:23;;;;;;;5.75;1.40;;;17.90;83.30;;;;;;5055730;28;20067;-72
2022/11/20 06:00:49;;;;;;;13.77;1.98;;;17.90;83.30;;;;;;5038594;28;20383;-72
2022/11/20 06:03:15;;;;;;;5.32;1.38;;;17.90;83.30;;;;;;5055911;28;20078;-72
2022/11/20 06:05:40;;;;;;;6.53;1.10;;;17.90;83.40;;;;;;5055924;28;20025;-72
2022/11/20 06:08:06;;;;;;;8.00;1.23;;;17.90;83.30;;;;;;5056008;28;20480;-72
2022/11/20 06:10:31;;;;;;;8.02;1.58;;;17.90;83.30;;;;;;5055765;28;20060;-72
2022/11/20 06:12:58;;;;;;;9.07;1.40;;;17.90;83.30;;;;;;5056048;28;20104;-72
2022/11/20 06:15:23;;;;;;;7.55;1.20;;;17.90;83.20;;;;;;5055989;28;20452;-72
2022/11/20 06:17:53;;;;;;;12.95;1.92;;;17.90;83.20;;;;;;5054257;28;20075;-72
2022/11/20 06:20:18;;;;;;;10.57;1.95;;;17.90;83.20;;;;;;5043002;28;20376;-72
2022/11/20 06:22:44;;;;;;;10.18;1.90;;;17.90;83.20;;;;;;5035929;28;20021;-72
2022/11/20 06:25:10;;;;;;;8.50;1.70;;;17.90;83.10;;;;;;5035851;28;20030;-72
2022/11/20 06:27:35;;;;;;;12.70;2.28;;;17.90;83.20;;;;;;5046879;28;20029;-72
2022/11/20 06:30:01;;;;;;;11.00;1.98;;;17.90;83.10;;;;;;5054504;28;20071;-72
2022/11/20 06:32:27;;;;;;;8.95;1.67;;;17.90;83.20;;;;;;5055119;28;20025;-72
2022/11/20 06:34:52;;;;;;;10.98;1.45;;;17.90;83.20;;;;;;5050603;28;20056;-72
2022/11/20 06:37:18;;;;;;;9.45;1.27;;;17.90;83.20;;;;;;5044153;28;20060;-72
2022/11/20 06:39:43;;;;;;;6.07;1.55;;;17.90;83.20;;;;;;5034036;28;20033;-72
2022/11/20 06:42:09;;;;;;;10.32;1.80;;;17.90;83.20;;;;;;5035434;28;20029;-72
2022/11/20 06:44:35;;;;;;;10.27;1.95;;;17.90;83.20;;;;;;5034138;28;20064;-72
2022/11/20 06:47:00;;;;;;;10.18;1.60;;;17.90;83.20;;;;;;5035097;28;20018;-72
2022/11/20 06:49:26;;;;;;;10.18;1.75;;;17.90;83.20;;;;;;5035289;28;20029;-72
2022/11/20 06:51:52;;;;;;;15.13;2.40;;;17.90;83.30;;;;;;5041786;28;20487;-72
2022/11/20 06:54:17;;;;;;;12.73;1.85;;;17.90;83.30;;;;;;5027589;28;20033;-72
2022/11/20 06:56:49;;;;;;;6.45;1.60;;;17.90;83.30;;;;;;5033534;28;20022;-72
2022/11/20 06:59:14;;;;;;;10.73;1.75;;;17.90;83.30;;;;;;5034189;28;20050;-72
2022/11/20 07:01:40;;;;;;;6.63;1.65;;;17.90;83.40;;;;;;5034218;28;20036;-72
2022/11/20 07:04:06;;;;;;;9.02;1.48;;;17.90;83.40;;;;;;5016879;28;20036;-72
2022/11/20 07:06:31;;;;;;;10.30;1.90;;;17.90;83.40;;;;;;5033151;28;20017;-72
2022/11/20 07:08:57;;;;;;;7.95;1.70;;;17.90;83.30;;;;;;5034409;28;20033;-72
2022/11/20 07:11:23;;;;;;;10.50;1.77;;;17.90;83.30;;;;;;5033086;28;20053;-72
2022/11/20 07:13:49;;;;;;;10.10;1.65;;;17.90;83.30;;;;;;5033234;28;20033;-72
2022/11/20 07:16:14;;;;;;;11.50;1.95;;;17.90;83.30;;;;;;5016424;28;20021;-72
2022/11/20 07:18:40;;;;;;;12.88;1.52;;;17.90;83.30;;;;;;5032809;28;20100;-72
2022/11/20 07:21:07;;;;;;;13.27;1.95;;;17.90;83.40;;;;;;5033916;28;20029;-72
2022/11/20 07:23:33;;;;;;;10.95;2.22;;;17.90;83.40;;;;;;5032631;28;20547;-72
2022/11/20 07:26:06;;;;;;;9.07;1.67;;;17.90;83.40;;;;;;5032889;28;20056;-72
2022/11/20 07:28:32;;;;;;;10.88;2.33;;;17.90;83.40;;;;;;5032635;28;20049;-72
2022/11/20 07:30:57;;;;;;;8.40;1.30;;;17.90;83.30;;;;;;5032796;28;20431;-72
2022/11/20 07:33:23;;;;;;;12.88;1.63;;;17.90;83.40;;;;;;5032742;28;20029;-72
2022/11/20 07:35:48;;;;;;;10.65;2.03;;;17.90;83.30;;;;;;5016313;28;20349;-72
2022/11/20 07:38:14;;;;;;;10.30;1.65;;;17.90;83.40;;;;;;5032330;28;20038;-72
2022/11/20 07:40:40;;;;;;;13.10;1.65;;;17.90;83.30;;;;;;5032317;28;20488;-72
2022/11/20 07:43:05;;;;;;;8.90;1.70;;;17.90;83.30;;;;;;5033509;28;20483;-72
2022/11/20 07:45:31;;;;;;;9.27;2.00;;;17.90;83.40;;;;;;5033454;28;20121;-72
2022/11/20 07:47:56;;;;;;;6.55;1.65;;;17.90;83.40;;;;;;5032593;28;20497;-72
2022/11/20 07:50:22;;;;;;;11.65;2.22;;;17.90;83.40;;;;;;5033391;28;20082;-72
2022/11/20 07:52:48;;;;;;;9.35;1.88;;;17.90;83.30;;;;;;5032279;28;20048;-72
2022/11/20 07:55:14;;;;;;;7.30;2.17;;;17.90;83.30;;;;;;5032359;28;20059;-72
2022/11/20 07:57:39;;;;;;;14.30;1.95;;;17.90;83.30;;;;;;5015288;28;20053;-72
2022/11/20 08:00:08;;;;;;;9.52;1.95;;;17.80;83.30;;;;;;5032218;28;20407;-72
2022/11/20 08:02:36;;;;;;;6.85;2.00;;;17.90;83.40;;;;;;5016151;28;20101;-72
2022/11/20 08:05:02;;;;;;;7.45;1.52;;;17.90;83.40;;;;;;5015821;28;20037;-72
2022/11/20 08:07:27;;;;;;;7.30;1.35;;;17.90;83.40;;;;;;5033042;28;20024;-72
2022/11/20 08:09:53;;;;;;;11.75;2.00;;;17.90;83.40;;;;;;5032106;28;20112;-72
2022/11/20 08:15:04;;;;;;;8.70;1.33;;;17.90;83.40;;;;;;5032339;28;20542;-72
2022/11/20 08:17:30;;;;;;;11.20;1.60;;;17.90;83.40;;;;;;5031624;28;20048;-72
2022/11/20 08:19:56;;;;;;;8.45;1.70;;;17.90;83.50;;;;;;5031629;28;20024;-72
2022/11/20 08:22:21;;;;;;;9.52;1.75;;;17.90;83.40;;;;;;5033039;28;20407;-72
2022/11/20 08:24:48;;;;;;;10.10;1.60;;;17.90;83.40;;;;;;5032952;28;20552;-72
2022/11/20 08:27:13;;;;;;;10.82;1.75;;;17.90;83.40;;;;;;5040816;28;20021;-72
2022/11/20 08:29:39;;;;;;;12.60;2.05;;;17.90;83.40;;;;;;5051513;28;20392;-72
2022/11/20 08:32:05;;;;;;;8.68;1.77;;;17.90;83.40;;;;;;5052801;28;20089;-72
2022/11/20 08:34:30;;;;;;;7.97;1.65;;;17.90;83.20;;;;;;5051461;28;20448;-72
2022/11/20 08:36:56;;;;;;;10.25;1.60;;;17.90;83.30;;;;;;5052713;28;20037;-72
2022/11/20 08:39:21;;;;;;;11.38;1.80;;;17.90;84.20;;;;;;5052532;28;20434;-72
2022/11/20 08:41:47;;;;;;;9.07;1.92;;;17.90;83.20;;;;;;5052306;28;20403;-72
2022/11/20 08:44:13;;;;;;;8.95;1.80;;;17.90;83.20;;;;;;5052534;28;20087;-72
2022/11/20 08:46:40;;;;;;;8.25;1.73;;;17.90;83.20;;;;;;5051172;28;20071;-72
2022/11/20 08:49:08;;;;;;;9.02;2.00;;;17.90;83.20;;;;;;5034606;28;20124;-72
2022/11/20 08:51:33;;;;;;;16.83;2.22;;;17.90;83.10;;;;;;5034474;28;20044;-72
2022/11/20 08:53:59;;;;;;;13.10;2.53;;;17.90;83.10;;;;;;5051382;28;20517;-72
2022/11/20 08:56:24;;;;;;;12.50;1.80;;;17.90;83.00;;;;;;5052155;28;20055;-72
2022/11/20 08:58:51;;;;;;;26.00;2.80;;;17.90;83.00;;;;;;5052120;28;20041;-72
2022/11/20 09:01:18;;;;;;;9.20;2.05;;;17.80;82.90;;;;;;5052376;28;20017;-72
2022/11/20 09:03:43;;;;;;;11.98;1.75;;;17.90;83.00;;;;;;5050814;28;20032;-72
2022/11/20 09:06:09;;;;;;;14.15;2.35;;;17.80;82.80;;;;;;5052707;28;20025;-72
2022/11/20 09:08:35;;;;;;;18.83;3.47;;;17.80;82.80;;;;;;5052164;28;20066;-72
2022/11/20 09:11:01;;;;;;;8.57;1.73;;;17.80;82.80;;;;;;5034312;28;20108;-72
2022/11/20 09:13:27;;;;;;;12.30;1.95;;;17.90;82.70;;;;;;5052285;28;20105;-72
2022/11/20 09:15:57;;;;;;;10.02;1.75;;;17.80;82.70;;;;;;5052189;28;20123;-72
2022/11/20 09:18:23;;;;;;;10.65;2.33;;;17.80;82.60;;;;;;5034351;28;20028;-72
2022/11/20 09:20:49;;;;;;;13.82;2.13;;;17.80;82.60;;;;;;5034212;28;20051;-72
2022/11/20 09:23:15;;;;;;;8.50;1.92;;;17.80;82.70;;;;;;5031260;28;20358;-72
2022/11/20 09:25:41;;;;;;;11.48;1.95;;;17.80;81.30;;;;;;5030985;28;20033;-73
2022/11/20 09:28:06;;;;;;;9.32;2.03;;;17.80;81.00;;;;;;5045855;28;20067;-71
2022/11/20 09:30:32;;;;;;;22.15;2.38;;;17.70;81.00;;;;;;5052072;28;20544;-72
2022/11/20 09:32:58;;;;;;;11.43;2.65;;;17.70;81.20;;;;;;5051765;28;20017;-72
2022/11/20 09:35:23;;;;;;;12.70;2.22;;;17.70;81.10;;;;;;5051971;28;20100;-72
2022/11/20 09:37:49;;;;;;;12.35;2.45;;;17.70;81.10;;;;;;5051126;28;20103;-71
2022/11/20 09:40:22;;;;;;;10.63;2.38;;;17.70;81.00;;;;;;5050711;28;20025;-70
2022/11/20 09:43:07;;;;;;;9.55;1.95;;;17.70;81.00;;;;;;5020053;28;20009;-70
2022/11/20 09:45:45;;;;;;;7.75;2.05;;;17.60;80.80;;;;;;5048581;28;20106;-70
2022/11/20 09:48:51;;;;;;;12.45;2.85;;;17.60;80.70;;;;;;5050171;28;20043;-70
2022/11/20 09:51:59;;;;;;;16.55;3.15;;;17.60;80.80;;;;;;5028771;28;20442;-71
2022/11/20 09:54:38;;;;;;;10.27;2.20;;;17.60;80.70;;;;;;4948052;29;20022;-71
2022/11/20 09:57:18;;;;;;;11.00;2.42;;;17.60;80.70;;;;;;4949604;29;20035;-71
2022/11/20 09:59:51;;;;;;;26.90;4.45;;;17.60;80.70;;;;;;4934764;29;20043;-71
2022/11/20 10:02:25;;;;;;;38.47;5.47;;;17.60;80.70;;;;;;4952623;28;20134;-71
2022/11/20 10:05:13;;;;;;;32.45;5.10;;;17.60;80.90;;;;;;4953303;28;20035;-71
2022/11/20 10:07:48;;;;;;;28.73;4.88;;;17.60;81.20;;;;;;4954193;29;20029;-71
2022/11/20 10:10:25;;;;;;;34.45;4.53;;;17.60;81.50;;;;;;4954130;29;20175;-71
2022/11/20 10:13:17;;;;;;;31.10;5.63;;;17.50;81.50;;;;;;4938048;29;20035;-71
2022/11/20 10:15:46;;;;;;;27.90;5.68;;;17.60;81.50;;;;;;4953658;29;20055;-71
2022/11/20 10:18:21;;;;;;;35.40;5.07;;;17.50;81.70;;;;;;4953815;29;20090;-71
2022/11/20 10:21:25;;;;;;;30.25;6.00;;;17.50;81.60;;;;;;4950774;29;20051;-71
2022/11/20 10:23:57;;;;;;;26.73;5.50;;;17.50;81.60;;;;;;4935629;29;20031;-71
2022/11/20 10:26:36;;;;;;;26.38;5.38;;;17.50;81.60;;;;;;5035145;28;20040;-71
2022/11/20 10:29:02;;;;;;;38.05;5.82;;;17.50;81.50;;;;;;5033825;28;20042;-71
2022/11/20 10:31:34;;;;;;;28.15;5.85;;;17.50;81.50;;;;;;5035063;28;20033;-71
2022/11/20 10:34:03;;;;;;;41.20;5.53;;;17.50;81.50;;;;;;5018131;28;20108;-71
2022/11/20 10:36:41;;;;;;;34.85;5.85;;;17.50;81.50;;;;;;5017629;28;20119;-71
2022/11/20 10:39:18;;;;;;;30.55;5.47;;;17.50;81.50;;;;;;5017348;28;20095;-71
2022/11/20 10:41:46;;;;;;;34.30;6.43;;;17.50;81.40;;;;;;5016866;28;20036;-71
2022/11/20 10:47:16;;;;;;;29.88;5.78;;;17.50;81.40;;;;;;5022409;28;20047;-71
2022/11/20 10:49:43;;;;;;;24.85;5.43;;;17.50;81.30;;;;;;5017052;28;20038;-71
2022/11/20 10:52:30;;;;;;;27.30;5.93;;;17.50;81.30;;;;;;5017148;28;20029;-71
2022/11/20 10:55:07;;;;;;;30.42;6.13;;;17.40;81.40;;;;;;5033407;28;20036;-71
2022/11/20 10:57:53;;;;;;;22.00;5.22;;;17.40;81.30;;;;;;5033109;28;20045;-71
2022/11/20 11:00:19;;;;;;;28.35;5.72;;;17.50;81.20;;;;;;5033443;28;20018;-71
2022/11/20 11:02:49;;;;;;;28.85;6.82;;;17.40;81.20;;;;;;5034237;28;20032;-71
2022/11/20 11:05:34;;;;;;;32.17;5.10;;;17.40;81.20;;;;;;5033319;28;20013;-71
2022/11/20 11:08:00;;;;;;;33.35;5.30;;;17.40;81.20;;;;;;5033290;28;20036;-71
2022/11/20 11:10:34;;;;;;;23.30;5.53;;;17.40;81.20;;;;;;5016682;28;20022;-71
2022/11/20 11:13:01;;;;;;;25.23;4.55;;;17.40;81.20;;;;;;5032664;28;20033;-71
2022/11/20 11:15:38;;;;;;;22.55;4.55;;;17.40;81.20;;;;;;5034231;28;20104;-71
2022/11/20 11:18:03;;;;;;;22.92;5.25;;;17.40;81.10;;;;;;5033086;28;20030;-71
2022/11/20 11:20:29;;;;;;;22.58;5.05;;;17.40;81.00;;;;;;5032907;28;20392;-71
2022/11/20 11:22:56;;;;;;;24.98;5.10;;;17.40;81.10;;;;;;5032754;28;20104;-71
2022/11/20 11:25:28;;;;;;;26.45;5.13;;;17.40;81.00;;;;;;5033010;28;20064;-71
2022/11/20 11:27:56;;;;;;;18.58;4.70;;;17.40;81.00;;;;;;5048497;28;20029;-71
2022/11/20 11:30:22;;;;;;;22.67;4.57;;;17.40;80.80;;;;;;5036472;28;20029;-71
2022/11/20 11:32:48;;;;;;;30.98;6.50;;;17.40;80.90;;;;;;5052534;28;20051;-71
2022/11/20 11:35:22;;;;;;;22.58;4.25;;;17.40;80.80;;;;;;5053795;28;20021;-71
2022/11/20 11:37:48;;;;;;;24.30;5.00;;;17.40;80.30;;;;;;5053675;28;20033;-71
2022/11/20 11:40:15;;;;;;;25.98;4.82;;;17.40;80.60;;;;;;5035866;28;20021;-71
2022/11/20 11:42:44;;;;;;;20.05;4.88;;;17.40;80.90;;;;;;5035908;28;20040;-71
2022/11/20 11:45:14;;;;;;;24.67;4.82;;;17.40;80.70;;;;;;5052425;28;20071;-71
2022/11/20 11:47:43;;;;;;;20.52;4.68;;;17.40;80.80;;;;;;5052188;28;20090;-71
2022/11/20 11:50:08;;;;;;;27.30;4.68;;;17.40;80.80;;;;;;5053348;28;20028;-71
2022/11/20 11:53:00;;;;;;;21.50;4.35;;;17.40;80.80;;;;;;5053626;28;20391;-71
2022/11/20 11:55:28;;;;;;;23.98;4.53;;;17.40;80.80;;;;;;5037663;28;20113;-71
2022/11/20 11:58:09;;;;;;;16.85;3.47;;;17.40;80.10;;;;;;5051811;28;20056;-71
2022/11/20 12:00:35;;;;;;;26.33;4.57;;;17.40;80.50;;;;;;5052263;28;20104;-71
2022/11/20 12:03:40;;;;;;;16.33;4.78;;;17.40;79.90;;;;;;5035428;28;20033;-71
2022/11/20 12:06:15;;;;;;;17.85;3.72;;;17.30;80.00;;;;;;5037880;28;20501;-71
2022/11/20 12:08:43;;;;;;;17.48;3.72;;;17.30;80.20;;;;;;5052092;28;20029;-71
2022/11/20 12:11:13;;;;;;;21.98;4.13;;;17.40;80.20;;;;;;5053278;28;20024;-71
2022/11/20 12:14:01;;;;;;;25.75;4.50;;;17.30;80.00;;;;;;5051769;28;20028;-70
2022/11/20 12:16:28;;;;;;;23.35;4.38;;;17.40;79.80;;;;;;5053029;28;20028;-70
2022/11/20 12:18:53;;;;;;;21.80;4.18;;;17.30;79.80;;;;;;5050220;28;20051;-71
2022/11/20 12:21:40;;;;;;;18.52;3.95;;;17.40;79.90;;;;;;5033225;28;20496;-71
2022/11/20 12:24:38;;;;;;;17.23;3.95;;;17.30;79.80;;;;;;5031228;28;20057;-70
2022/11/20 12:27:03;;;;;;;17.83;3.42;;;17.30;80.10;;;;;;5040404;28;20174;-70
2022/11/20 12:29:38;;;;;;;20.13;3.92;;;17.30;80.00;;;;;;5052711;28;20523;-70
2022/11/20 12:32:28;;;;;;;16.20;4.00;;;17.40;80.50;;;;;;5052833;28;20028;-71
2022/11/20 12:35:03;;;;;;;16.63;3.28;;;17.40;80.30;;;;;;5051034;28;20103;-70
2022/11/20 12:37:50;;;;;;;17.17;3.88;;;17.40;80.60;;;;;;5052630;28;20024;-71
2022/11/20 12:40:49;;;;;;;18.88;3.70;;;17.40;80.50;;;;;;5052583;28;20124;-70
2022/11/20 12:46:46;;;;;;;17.77;3.58;;;17.40;80.50;;;;;;5051986;28;20059;-70
2022/11/20 12:49:11;;;;;;;14.25;3.78;;;17.40;80.20;;;;;;5034442;28;20029;-70
2022/11/20 12:51:49;;;;;;;17.33;3.65;;;17.40;79.80;;;;;;5052354;28;20029;-70
2022/11/20 12:54:41;;;;;;;14.98;3.25;;;17.40;79.80;;;;;;5052339;28;20025;-70
2022/11/20 12:57:15;;;;;;;15.55;3.33;;;17.40;79.80;;;;;;5052275;28;20104;-70
2022/11/20 13:00:05;;;;;;;19.55;3.80;;;17.40;81.20;;;;;;5051172;28;20072;-70
2022/11/20 13:02:47;;;;;;;20.23;3.60;;;17.40;80.10;;;;;;5052134;28;20553;-70
2022/11/20 13:05:25;;;;;;;18.20;3.33;;;17.40;79.70;;;;;;5051129;28;20119;-70
2022/11/20 13:07:51;;;;;;;14.70;4.00;;;17.40;79.50;;;;;;5050936;28;20501;-70